sensor_id;sensor_type;location;lat;lon;timestamp;P1;durP1;ratioP1;P2;durP2;ratioP2
11255;SDS011;5685;52.384;13.420;2023-05-14T00:02:59;77.70;;;42.10;;
11255;SDS011;5685;52.384;13.420;2023-05-14T00:06:01;77.70;;;42.03;;
11255;SDS011;5685;52.384;13.420;2023-05-14T00:09:04;77.40;;;42.03;;
11255;SDS011;5685;52.384;13.420;2023-05-14T00:12:06;78.40;;;42.33;;
11255;SDS011;5685;52.384;13.420;2023-05-14T00:15:09;77.47;;;42.03;;
11255;SDS011;5685;52.384;13.420;2023-05-14T00:18:13;77.70;;;42.17;;
11255;SDS011;5685;52.384;13.420;2023-05-14T00:21:15;78.27;;;42.33;;
11255;SDS011;5685;52.384;13.420;2023-05-14T00:24:17;78.07;;;42.17;;
11255;SDS011;5685;52.384;13.420;2023-05-14T00:27:20;77.73;;;42.10;;
11255;SDS011;5685;52.384;13.420;2023-05-14T00:30:22;77.47;;;41.90;;
11255;SDS011;5685;52.384;13.420;2023-05-14T00:33:26;77.67;;;41.97;;
11255;SDS011;5685;52.384;13.420;2023-05-14T00:36:28;78.30;;;42.20;;
11255;SDS011;5685;52.384;13.420;2023-05-14T00:39:30;78.10;;;42.30;;
11255;SDS011;5685;52.384;13.420;2023-05-14T00:42:33;77.97;;;42.17;;
11255;SDS011;5685;52.384;13.420;2023-05-14T00:45:35;77.33;;;41.90;;
11255;SDS011;5685;52.384;13.420;2023-05-14T00:48:39;77.70;;;42.07;;
11255;SDS011;5685;52.384;13.420;2023-05-14T00:51:42;78.27;;;42.30;;
11255;SDS011;5685;52.384;13.420;2023-05-14T00:54:45;77.77;;;42.10;;
11255;SDS011;5685;52.384;13.420;2023-05-14T00:57:49;78.20;;;42.30;;
11255;SDS011;5685;52.384;13.420;2023-05-14T01:00:51;77.30;;;41.77;;
11255;SDS011;5685;52.384;13.420;2023-05-14T01:03:55;77.63;;;41.90;;
11255;SDS011;5685;52.384;13.420;2023-05-14T01:07:00;77.20;;;41.77;;
11255;SDS011;5685;52.384;13.420;2023-05-14T01:10:07;77.87;;;41.97;;
11255;SDS011;5685;52.384;13.420;2023-05-14T01:13:12;77.47;;;41.90;;
11255;SDS011;5685;52.384;13.420;2023-05-14T01:16:14;78.20;;;42.10;;
11255;SDS011;5685;52.384;13.420;2023-05-14T01:19:25;77.40;;;41.67;;
11255;SDS011;5685;52.384;13.420;2023-05-14T01:22:30;77.93;;;41.90;;
11255;SDS011;5685;52.384;13.420;2023-05-14T01:25:33;77.67;;;41.87;;
11255;SDS011;5685;52.384;13.420;2023-05-14T01:28:35;77.93;;;41.90;;
11255;SDS011;5685;52.384;13.420;2023-05-14T01:31:38;78.13;;;42.00;;
11255;SDS011;5685;52.384;13.420;2023-05-14T01:34:41;77.97;;;41.90;;
11255;SDS011;5685;52.384;13.420;2023-05-14T01:37:47;77.97;;;42.10;;
11255;SDS011;5685;52.384;13.420;2023-05-14T01:40:49;77.40;;;41.67;;
11255;SDS011;5685;52.384;13.420;2023-05-14T01:43:53;77.60;;;41.80;;
11255;SDS011;5685;52.384;13.420;2023-05-14T01:46:55;77.83;;;41.87;;
11255;SDS011;5685;52.384;13.420;2023-05-14T01:49:58;77.50;;;41.83;;
11255;SDS011;5685;52.384;13.420;2023-05-14T01:53:02;77.87;;;41.97;;
11255;SDS011;5685;52.384;13.420;2023-05-14T01:56:04;77.87;;;41.93;;
11255;SDS011;5685;52.384;13.420;2023-05-14T01:59:07;77.53;;;41.73;;
11255;SDS011;5685;52.384;13.420;2023-05-14T02:02:09;78.00;;;41.90;;
11255;SDS011;5685;52.384;13.420;2023-05-14T02:05:12;77.93;;;41.90;;
11255;SDS011;5685;52.384;13.420;2023-05-14T02:08:15;77.77;;;41.83;;
11255;SDS011;5685;52.384;13.420;2023-05-14T02:11:18;78.10;;;42.00;;
11255;SDS011;5685;52.384;13.420;2023-05-14T02:14:20;77.60;;;41.67;;
11255;SDS011;5685;52.384;13.420;2023-05-14T02:17:23;77.70;;;41.87;;
11255;SDS011;5685;52.384;13.420;2023-05-14T02:20:25;77.97;;;41.83;;
11255;SDS011;5685;52.384;13.420;2023-05-14T02:23:29;77.57;;;41.77;;
11255;SDS011;5685;52.384;13.420;2023-05-14T02:26:32;77.70;;;41.80;;
11255;SDS011;5685;52.384;13.420;2023-05-14T02:29:34;77.37;;;41.50;;
11255;SDS011;5685;52.384;13.420;2023-05-14T02:32:36;77.67;;;41.70;;
11255;SDS011;5685;52.384;13.420;2023-05-14T02:35:38;77.67;;;41.70;;
11255;SDS011;5685;52.384;13.420;2023-05-14T02:38:42;77.37;;;41.47;;
11255;SDS011;5685;52.384;13.420;2023-05-14T02:41:44;77.13;;;41.50;;
11255;SDS011;5685;52.384;13.420;2023-05-14T02:44:47;77.83;;;41.83;;
11255;SDS011;5685;52.384;13.420;2023-05-14T02:47:51;77.27;;;41.43;;
11255;SDS011;5685;52.384;13.420;2023-05-14T02:50:53;77.27;;;41.53;;
11255;SDS011;5685;52.384;13.420;2023-05-14T02:53:57;77.33;;;41.47;;
11255;SDS011;5685;52.384;13.420;2023-05-14T02:56:59;78.00;;;41.80;;
11255;SDS011;5685;52.384;13.420;2023-05-14T03:00:02;77.80;;;41.70;;
11255;SDS011;5685;52.384;13.420;2023-05-14T03:03:04;77.43;;;41.50;;
11255;SDS011;5685;52.384;13.420;2023-05-14T03:06:07;77.73;;;41.57;;
11255;SDS011;5685;52.384;13.420;2023-05-14T03:09:11;78.07;;;41.87;;
11255;SDS011;5685;52.384;13.420;2023-05-14T03:12:13;77.17;;;41.40;;
11255;SDS011;5685;52.384;13.420;2023-05-14T03:15:15;77.33;;;41.57;;
11255;SDS011;5685;52.384;13.420;2023-05-14T03:18:17;77.37;;;41.50;;
11255;SDS011;5685;52.384;13.420;2023-05-14T03:21:20;78.00;;;41.93;;
11255;SDS011;5685;52.384;13.420;2023-05-14T03:24:24;76.97;;;41.33;;
11255;SDS011;5685;52.384;13.420;2023-05-14T03:27:26;78.03;;;41.80;;
11255;SDS011;5685;52.384;13.420;2023-05-14T03:30:28;77.63;;;41.60;;
11255;SDS011;5685;52.384;13.420;2023-05-14T03:33:31;77.60;;;41.67;;
11255;SDS011;5685;52.384;13.420;2023-05-14T03:36:33;77.33;;;41.57;;
11255;SDS011;5685;52.384;13.420;2023-05-14T03:39:38;77.23;;;41.33;;
11255;SDS011;5685;52.384;13.420;2023-05-14T03:42:40;77.60;;;41.63;;
11255;SDS011;5685;52.384;13.420;2023-05-14T03:45:43;77.90;;;41.70;;
11255;SDS011;5685;52.384;13.420;2023-05-14T03:48:45;77.40;;;41.50;;
11255;SDS011;5685;52.384;13.420;2023-05-14T03:51:47;78.00;;;41.67;;
11255;SDS011;5685;52.384;13.420;2023-05-14T03:54:51;77.90;;;41.67;;
11255;SDS011;5685;52.384;13.420;2023-05-14T03:57:53;77.47;;;41.37;;
11255;SDS011;5685;52.384;13.420;2023-05-14T04:00:55;77.33;;;41.40;;
11255;SDS011;5685;52.384;13.420;2023-05-14T04:03:59;78.00;;;41.70;;
11255;SDS011;5685;52.384;13.420;2023-05-14T04:07:01;77.47;;;41.43;;
11255;SDS011;5685;52.384;13.420;2023-05-14T04:10:06;77.53;;;41.37;;
11255;SDS011;5685;52.384;13.420;2023-05-14T04:13:08;77.70;;;41.47;;
11255;SDS011;5685;52.384;13.420;2023-05-14T04:16:11;78.17;;;41.77;;
11255;SDS011;5685;52.384;13.420;2023-05-14T04:19:13;77.80;;;41.63;;
11255;SDS011;5685;52.384;13.420;2023-05-14T04:22:15;78.07;;;41.63;;
11255;SDS011;5685;52.384;13.420;2023-05-14T04:25:19;77.67;;;41.50;;
11255;SDS011;5685;52.384;13.420;2023-05-14T04:28:23;77.63;;;41.50;;
11255;SDS011;5685;52.384;13.420;2023-05-14T04:31:25;77.63;;;41.47;;
11255;SDS011;5685;52.384;13.420;2023-05-14T04:34:27;77.67;;;41.43;;
11255;SDS011;5685;52.384;13.420;2023-05-14T04:37:30;77.40;;;41.40;;
11255;SDS011;5685;52.384;13.420;2023-05-14T04:40:33;77.33;;;41.30;;
11255;SDS011;5685;52.384;13.420;2023-05-14T04:43:36;77.67;;;41.53;;
11255;SDS011;5685;52.384;13.420;2023-05-14T04:46:38;77.60;;;41.50;;
11255;SDS011;5685;52.384;13.420;2023-05-14T04:49:40;77.67;;;41.53;;
11255;SDS011;5685;52.384;13.420;2023-05-14T04:52:43;77.17;;;41.30;;
11255;SDS011;5685;52.384;13.420;2023-05-14T04:55:46;77.57;;;41.43;;
11255;SDS011;5685;52.384;13.420;2023-05-14T04:58:49;77.53;;;41.43;;
11255;SDS011;5685;52.384;13.420;2023-05-14T05:01:51;77.60;;;41.40;;
11255;SDS011;5685;52.384;13.420;2023-05-14T05:04:53;78.33;;;41.70;;
11255;SDS011;5685;52.384;13.420;2023-05-14T05:07:55;77.37;;;41.40;;
11255;SDS011;5685;52.384;13.420;2023-05-14T05:10:59;77.43;;;41.33;;
11255;SDS011;5685;52.384;13.420;2023-05-14T05:14:01;77.63;;;41.47;;
11255;SDS011;5685;52.384;13.420;2023-05-14T05:17:04;77.33;;;41.30;;
11255;SDS011;5685;52.384;13.420;2023-05-14T05:20:07;77.17;;;41.17;;
11255;SDS011;5685;52.384;13.420;2023-05-14T05:23:09;77.57;;;41.40;;
11255;SDS011;5685;52.384;13.420;2023-05-14T05:26:13;77.93;;;41.57;;
11255;SDS011;5685;52.384;13.420;2023-05-14T05:29:15;77.67;;;41.33;;
11255;SDS011;5685;52.384;13.420;2023-05-14T05:32:18;77.67;;;41.40;;
11255;SDS011;5685;52.384;13.420;2023-05-14T05:35:20;77.73;;;41.53;;
11255;SDS011;5685;52.384;13.420;2023-05-14T05:38:22;77.30;;;41.30;;
11255;SDS011;5685;52.384;13.420;2023-05-14T05:41:26;77.87;;;41.60;;
11255;SDS011;5685;52.384;13.420;2023-05-14T05:44:29;77.90;;;41.60;;
11255;SDS011;5685;52.384;13.420;2023-05-14T05:47:31;77.63;;;41.60;;
11255;SDS011;5685;52.384;13.420;2023-05-14T05:50:33;77.47;;;41.43;;
11255;SDS011;5685;52.384;13.420;2023-05-14T05:53:36;77.23;;;41.17;;
11255;SDS011;5685;52.384;13.420;2023-05-14T05:56:40;77.80;;;41.47;;
11255;SDS011;5685;52.384;13.420;2023-05-14T05:59:42;77.40;;;41.33;;
11255;SDS011;5685;52.384;13.420;2023-05-14T06:02:45;77.27;;;41.17;;
11255;SDS011;5685;52.384;13.420;2023-05-14T06:05:47;77.43;;;41.27;;
11255;SDS011;5685;52.384;13.420;2023-05-14T06:08:49;78.07;;;41.43;;
11255;SDS011;5685;52.384;13.420;2023-05-14T06:11:53;78.00;;;41.40;;
11255;SDS011;5685;52.384;13.420;2023-05-14T06:14:55;77.23;;;41.13;;
11255;SDS011;5685;52.384;13.420;2023-05-14T06:17:58;77.17;;;40.97;;
11255;SDS011;5685;52.384;13.420;2023-05-14T06:21:00;78.03;;;41.50;;
11255;SDS011;5685;52.384;13.420;2023-05-14T06:24:02;77.93;;;41.37;;
11255;SDS011;5685;52.384;13.420;2023-05-14T06:27:06;77.40;;;41.13;;
11255;SDS011;5685;52.384;13.420;2023-05-14T06:30:10;77.67;;;41.33;;
11255;SDS011;5685;52.384;13.420;2023-05-14T06:33:12;77.40;;;41.27;;
11255;SDS011;5685;52.384;13.420;2023-05-14T06:36:14;77.10;;;41.00;;
11255;SDS011;5685;52.384;13.420;2023-05-14T06:39:17;78.07;;;41.40;;
11255;SDS011;5685;52.384;13.420;2023-05-14T06:42:20;77.03;;;40.97;;
11255;SDS011;5685;52.384;13.420;2023-05-14T06:45:23;77.10;;;41.03;;
11255;SDS011;5685;52.384;13.420;2023-05-14T06:48:25;78.03;;;41.40;;
11255;SDS011;5685;52.384;13.420;2023-05-14T06:51:28;77.50;;;41.23;;
11255;SDS011;5685;52.384;13.420;2023-05-14T06:54:31;77.47;;;41.13;;
11255;SDS011;5685;52.384;13.420;2023-05-14T06:57:35;77.43;;;41.13;;
11255;SDS011;5685;52.384;13.420;2023-05-14T07:00:37;77.83;;;41.37;;
11255;SDS011;5685;52.384;13.420;2023-05-14T07:03:39;77.90;;;41.33;;
11255;SDS011;5685;52.384;13.420;2023-05-14T07:06:42;77.87;;;41.23;;
11255;SDS011;5685;52.384;13.420;2023-05-14T07:09:44;77.53;;;41.10;;
11255;SDS011;5685;52.384;13.420;2023-05-14T07:12:48;77.40;;;41.03;;
11255;SDS011;5685;52.384;13.420;2023-05-14T07:15:50;77.10;;;40.83;;
11255;SDS011;5685;52.384;13.420;2023-05-14T07:18:54;77.60;;;41.10;;
11255;SDS011;5685;52.384;13.420;2023-05-14T07:21:57;77.60;;;41.10;;
11255;SDS011;5685;52.384;13.420;2023-05-14T07:25:00;77.20;;;40.90;;
11255;SDS011;5685;52.384;13.420;2023-05-14T07:28:04;77.50;;;41.03;;
11255;SDS011;5685;52.384;13.420;2023-05-14T07:31:06;77.30;;;41.00;;
11255;SDS011;5685;52.384;13.420;2023-05-14T07:34:08;77.87;;;41.20;;
11255;SDS011;5685;52.384;13.420;2023-05-14T07:37:11;77.50;;;41.10;;
11255;SDS011;5685;52.384;13.420;2023-05-14T07:40:14;78.13;;;41.40;;
11255;SDS011;5685;52.384;13.420;2023-05-14T07:43:18;77.80;;;41.20;;
11255;SDS011;5685;52.384;13.420;2023-05-14T07:46:20;77.27;;;40.97;;
11255;SDS011;5685;52.384;13.420;2023-05-14T07:49:23;77.80;;;41.20;;
11255;SDS011;5685;52.384;13.420;2023-05-14T07:52:25;77.60;;;41.00;;
11255;SDS011;5685;52.384;13.420;2023-05-14T07:55:27;77.87;;;41.43;;
11255;SDS011;5685;52.384;13.420;2023-05-14T07:58:31;78.03;;;41.30;;
11255;SDS011;5685;52.384;13.420;2023-05-14T08:01:34;77.47;;;41.10;;
11255;SDS011;5685;52.384;13.420;2023-05-14T08:04:36;77.37;;;41.07;;
11255;SDS011;5685;52.384;13.420;2023-05-14T08:07:38;77.33;;;40.97;;
11255;SDS011;5685;52.384;13.420;2023-05-14T08:10:41;77.80;;;41.20;;
11255;SDS011;5685;52.384;13.420;2023-05-14T08:13:44;77.63;;;41.13;;
11255;SDS011;5685;52.384;13.420;2023-05-14T08:16:47;78.10;;;41.13;;
11255;SDS011;5685;52.384;13.420;2023-05-14T08:19:49;77.53;;;40.93;;
11255;SDS011;5685;52.384;13.420;2023-05-14T08:22:51;77.40;;;40.97;;
11255;SDS011;5685;52.384;13.420;2023-05-14T08:25:54;77.53;;;41.10;;
11255;SDS011;5685;52.384;13.420;2023-05-14T08:28:57;77.40;;;41.00;;
11255;SDS011;5685;52.384;13.420;2023-05-14T08:32:00;77.80;;;41.10;;
11255;SDS011;5685;52.384;13.420;2023-05-14T08:35:02;77.77;;;41.10;;
11255;SDS011;5685;52.384;13.420;2023-05-14T08:38:04;77.33;;;40.90;;
11255;SDS011;5685;52.384;13.420;2023-05-14T08:41:07;77.63;;;41.00;;
11255;SDS011;5685;52.384;13.420;2023-05-14T08:44:12;77.70;;;41.13;;
11255;SDS011;5685;52.384;13.420;2023-05-14T08:47:14;77.63;;;40.97;;
11255;SDS011;5685;52.384;13.420;2023-05-14T08:50:18;77.77;;;41.10;;
11255;SDS011;5685;52.384;13.420;2023-05-14T08:53:21;77.37;;;40.90;;
11255;SDS011;5685;52.384;13.420;2023-05-14T08:56:23;77.27;;;40.90;;
11255;SDS011;5685;52.384;13.420;2023-05-14T08:59:27;78.00;;;41.30;;
11255;SDS011;5685;52.384;13.420;2023-05-14T09:02:30;78.10;;;41.20;;
11255;SDS011;5685;52.384;13.420;2023-05-14T09:05:32;77.70;;;41.20;;
11255;SDS011;5685;52.384;13.420;2023-05-14T09:08:35;77.33;;;41.07;;
11255;SDS011;5685;52.384;13.420;2023-05-14T09:11:39;77.63;;;41.07;;
11255;SDS011;5685;52.384;13.420;2023-05-14T09:14:44;77.77;;;41.20;;
11255;SDS011;5685;52.384;13.420;2023-05-14T09:17:46;77.63;;;41.17;;
11255;SDS011;5685;52.384;13.420;2023-05-14T09:20:49;77.53;;;41.10;;
11255;SDS011;5685;52.384;13.420;2023-05-14T09:23:52;77.80;;;41.10;;
11255;SDS011;5685;52.384;13.420;2023-05-14T09:26:56;77.27;;;40.97;;
11255;SDS011;5685;52.384;13.420;2023-05-14T09:30:08;78.20;;;41.40;;
11255;SDS011;5685;52.384;13.420;2023-05-14T09:33:10;77.80;;;41.20;;
11255;SDS011;5685;52.384;13.420;2023-05-14T09:36:12;78.17;;;41.40;;
11255;SDS011;5685;52.384;13.420;2023-05-14T09:39:16;77.50;;;41.07;;
11255;SDS011;5685;52.384;13.420;2023-05-14T09:42:18;77.87;;;41.20;;
11255;SDS011;5685;52.384;13.420;2023-05-14T09:45:22;77.87;;;41.27;;
11255;SDS011;5685;52.384;13.420;2023-05-14T09:48:25;77.83;;;41.27;;
11255;SDS011;5685;52.384;13.420;2023-05-14T09:51:28;77.90;;;41.20;;
11255;SDS011;5685;52.384;13.420;2023-05-14T09:54:30;77.67;;;41.10;;
11255;SDS011;5685;52.384;13.420;2023-05-14T09:57:33;77.57;;;41.17;;
11255;SDS011;5685;52.384;13.420;2023-05-14T10:00:37;78.13;;;41.37;;
11255;SDS011;5685;52.384;13.420;2023-05-14T10:03:40;77.40;;;41.00;;
11255;SDS011;5685;52.384;13.420;2023-05-14T10:06:42;77.33;;;41.07;;
11255;SDS011;5685;52.384;13.420;2023-05-14T10:09:47;77.70;;;41.10;;
11255;SDS011;5685;52.384;13.420;2023-05-14T10:12:50;77.53;;;41.10;;
11255;SDS011;5685;52.384;13.420;2023-05-14T10:15:55;77.27;;;40.97;;
11255;SDS011;5685;52.384;13.420;2023-05-14T10:18:59;77.47;;;41.03;;
11255;SDS011;5685;52.384;13.420;2023-05-14T10:22:03;77.80;;;41.20;;
11255;SDS011;5685;52.384;13.420;2023-05-14T10:25:06;77.57;;;41.10;;
11255;SDS011;5685;52.384;13.420;2023-05-14T10:28:08;77.57;;;41.07;;
11255;SDS011;5685;52.384;13.420;2023-05-14T10:31:12;77.47;;;41.10;;
11255;SDS011;5685;52.384;13.420;2023-05-14T10:34:31;77.83;;;41.20;;
11255;SDS011;5685;52.384;13.420;2023-05-14T10:37:33;77.77;;;41.20;;
11255;SDS011;5685;52.384;13.420;2023-05-14T10:40:36;77.60;;;41.10;;
11255;SDS011;5685;52.384;13.420;2023-05-14T10:43:40;76.83;;;40.80;;
11255;SDS011;5685;52.384;13.420;2023-05-14T10:46:44;77.80;;;41.20;;
11255;SDS011;5685;52.384;13.420;2023-05-14T10:49:47;77.90;;;41.33;;
11255;SDS011;5685;52.384;13.420;2023-05-14T10:52:49;77.73;;;41.00;;
11255;SDS011;5685;52.384;13.420;2023-05-14T10:55:54;77.40;;;40.97;;
11255;SDS011;5685;52.384;13.420;2023-05-14T10:58:57;77.33;;;41.00;;
11255;SDS011;5685;52.384;13.420;2023-05-14T11:02:00;78.03;;;41.27;;
11255;SDS011;5685;52.384;13.420;2023-05-14T11:05:06;77.53;;;41.03;;
11255;SDS011;5685;52.384;13.420;2023-05-14T11:08:10;77.43;;;40.97;;
11255;SDS011;5685;52.384;13.420;2023-05-14T11:11:13;77.10;;;40.87;;
11255;SDS011;5685;52.384;13.420;2023-05-14T11:14:18;77.40;;;41.00;;
11255;SDS011;5685;52.384;13.420;2023-05-14T11:17:22;77.30;;;41.00;;
11255;SDS011;5685;52.384;13.420;2023-05-14T11:20:24;77.60;;;41.03;;
11255;SDS011;5685;52.384;13.420;2023-05-14T11:23:27;77.50;;;41.10;;
11255;SDS011;5685;52.384;13.420;2023-05-14T11:26:30;76.83;;;40.67;;
11255;SDS011;5685;52.384;13.420;2023-05-14T11:29:33;77.80;;;41.23;;
11255;SDS011;5685;52.384;13.420;2023-05-14T11:32:37;77.83;;;41.20;;
11255;SDS011;5685;52.384;13.420;2023-05-14T11:35:39;77.70;;;41.17;;
11255;SDS011;5685;52.384;13.420;2023-05-14T11:38:45;78.13;;;41.53;;
11255;SDS011;5685;52.384;13.420;2023-05-14T11:41:49;78.10;;;41.30;;
11255;SDS011;5685;52.384;13.420;2023-05-14T11:44:52;77.67;;;41.10;;
11255;SDS011;5685;52.384;13.420;2023-05-14T11:47:56;78.00;;;41.27;;
11255;SDS011;5685;52.384;13.420;2023-05-14T11:50:58;78.00;;;41.20;;
11255;SDS011;5685;52.384;13.420;2023-05-14T11:54:00;77.20;;;40.93;;
11255;SDS011;5685;52.384;13.420;2023-05-14T11:57:06;77.73;;;41.20;;
11255;SDS011;5685;52.384;13.420;2023-05-14T12:00:09;77.67;;;41.13;;
11255;SDS011;5685;52.384;13.420;2023-05-14T12:03:15;77.90;;;41.20;;
11255;SDS011;5685;52.384;13.420;2023-05-14T12:06:22;77.40;;;41.07;;
11255;SDS011;5685;52.384;13.420;2023-05-14T12:09:34;77.90;;;41.20;;
11255;SDS011;5685;52.384;13.420;2023-05-14T12:12:36;77.03;;;40.87;;
11255;SDS011;5685;52.384;13.420;2023-05-14T12:15:39;77.70;;;41.10;;
11255;SDS011;5685;52.384;13.420;2023-05-14T12:18:43;77.77;;;41.17;;
11255;SDS011;5685;52.384;13.420;2023-05-14T12:21:45;77.80;;;41.13;;
11255;SDS011;5685;52.384;13.420;2023-05-14T12:24:53;77.80;;;41.17;;
11255;SDS011;5685;52.384;13.420;2023-05-14T12:27:55;77.40;;;40.97;;
11255;SDS011;5685;52.384;13.420;2023-05-14T12:30:58;77.63;;;41.13;;
11255;SDS011;5685;52.384;13.420;2023-05-14T12:34:03;77.47;;;41.07;;
11255;SDS011;5685;52.384;13.420;2023-05-14T12:37:06;77.67;;;41.13;;
11255;SDS011;5685;52.384;13.420;2023-05-14T12:40:08;78.07;;;41.47;;
11255;SDS011;5685;52.384;13.420;2023-05-14T12:43:11;77.90;;;41.23;;
11255;SDS011;5685;52.384;13.420;2023-05-14T12:46:13;77.87;;;41.20;;
11255;SDS011;5685;52.384;13.420;2023-05-14T12:49:17;77.70;;;41.17;;
11255;SDS011;5685;52.384;13.420;2023-05-14T12:52:20;77.63;;;41.30;;
11255;SDS011;5685;52.384;13.420;2023-05-14T12:55:22;77.07;;;40.93;;
11255;SDS011;5685;52.384;13.420;2023-05-14T12:58:24;77.40;;;41.03;;
11255;SDS011;5685;52.384;13.420;2023-05-14T13:01:27;77.47;;;41.13;;
11255;SDS011;5685;52.384;13.420;2023-05-14T13:04:31;77.20;;;41.00;;
11255;SDS011;5685;52.384;13.420;2023-05-14T13:07:33;77.63;;;41.13;;
11255;SDS011;5685;52.384;13.420;2023-05-14T13:10:36;77.23;;;41.03;;
11255;SDS011;5685;52.384;13.420;2023-05-14T13:13:38;77.50;;;41.13;;
11255;SDS011;5685;52.384;13.420;2023-05-14T13:16:40;77.23;;;41.10;;
11255;SDS011;5685;52.384;13.420;2023-05-14T13:19:44;77.33;;;41.17;;
11255;SDS011;5685;52.384;13.420;2023-05-14T13:22:47;77.40;;;41.13;;
11255;SDS011;5685;52.384;13.420;2023-05-14T13:25:49;77.80;;;41.40;;
11255;SDS011;5685;52.384;13.420;2023-05-14T13:28:51;77.70;;;41.30;;
11255;SDS011;5685;52.384;13.420;2023-05-14T13:31:54;77.93;;;41.40;;
11255;SDS011;5685;52.384;13.420;2023-05-14T13:34:57;77.43;;;41.20;;
11255;SDS011;5685;52.384;13.420;2023-05-14T13:38:00;77.63;;;41.33;;
11255;SDS011;5685;52.384;13.420;2023-05-14T13:41:02;77.40;;;41.50;;
11255;SDS011;5685;52.384;13.420;2023-05-14T13:44:04;77.47;;;41.37;;
11255;SDS011;5685;52.384;13.420;2023-05-14T13:47:07;77.83;;;41.40;;
11255;SDS011;5685;52.384;13.420;2023-05-14T13:50:10;77.33;;;41.07;;
11255;SDS011;5685;52.384;13.420;2023-05-14T13:53:13;77.40;;;41.20;;
11255;SDS011;5685;52.384;13.420;2023-05-14T13:56:16;77.63;;;41.20;;
11255;SDS011;5685;52.384;13.420;2023-05-14T13:59:18;77.27;;;41.13;;
11255;SDS011;5685;52.384;13.420;2023-05-14T14:02:20;77.80;;;41.30;;
11255;SDS011;5685;52.384;13.420;2023-05-14T14:05:24;77.67;;;41.27;;
11255;SDS011;5685;52.384;13.420;2023-05-14T14:08:27;77.67;;;41.27;;
11255;SDS011;5685;52.384;13.420;2023-05-14T14:11:30;77.60;;;41.27;;
11255;SDS011;5685;52.384;13.420;2023-05-14T14:14:32;77.43;;;41.00;;
11255;SDS011;5685;52.384;13.420;2023-05-14T14:17:35;77.67;;;41.20;;
11255;SDS011;5685;52.384;13.420;2023-05-14T14:20:39;77.63;;;41.20;;
11255;SDS011;5685;52.384;13.420;2023-05-14T14:23:42;77.53;;;41.20;;
11255;SDS011;5685;52.384;13.420;2023-05-14T14:26:44;78.07;;;41.27;;
11255;SDS011;5685;52.384;13.420;2023-05-14T14:29:46;77.60;;;41.37;;
11255;SDS011;5685;52.384;13.420;2023-05-14T14:32:49;77.47;;;41.17;;
11255;SDS011;5685;52.384;13.420;2023-05-14T14:35:54;77.60;;;41.20;;
11255;SDS011;5685;52.384;13.420;2023-05-14T14:38:56;77.30;;;40.93;;
11255;SDS011;5685;52.384;13.420;2023-05-14T14:41:59;77.40;;;41.10;;
11255;SDS011;5685;52.384;13.420;2023-05-14T14:45:01;76.90;;;40.87;;
11255;SDS011;5685;52.384;13.420;2023-05-14T14:48:23;78.17;;;41.43;;
11255;SDS011;5685;52.384;13.420;2023-05-14T14:51:27;77.07;;;40.83;;
11255;SDS011;5685;52.384;13.420;2023-05-14T14:54:30;76.90;;;40.93;;
11255;SDS011;5685;52.384;13.420;2023-05-14T14:57:32;77.67;;;41.20;;
11255;SDS011;5685;52.384;13.420;2023-05-14T15:00:35;77.57;;;41.20;;
11255;SDS011;5685;52.384;13.420;2023-05-14T15:03:37;77.33;;;41.00;;
11255;SDS011;5685;52.384;13.420;2023-05-14T15:06:41;77.27;;;40.93;;
11255;SDS011;5685;52.384;13.420;2023-05-14T15:09:43;77.57;;;41.17;;
11255;SDS011;5685;52.384;13.420;2023-05-14T15:12:46;77.07;;;40.93;;
11255;SDS011;5685;52.384;13.420;2023-05-14T15:15:48;77.33;;;41.00;;
11255;SDS011;5685;52.384;13.420;2023-05-14T15:18:51;77.37;;;41.10;;
11255;SDS011;5685;52.384;13.420;2023-05-14T15:21:55;78.07;;;41.43;;
11255;SDS011;5685;52.384;13.420;2023-05-14T15:24:57;77.70;;;41.27;;
11255;SDS011;5685;52.384;13.420;2023-05-14T15:27:59;77.77;;;41.23;;
11255;SDS011;5685;52.384;13.420;2023-05-14T15:31:02;77.17;;;40.97;;
11255;SDS011;5685;52.384;13.420;2023-05-14T15:34:04;77.77;;;41.30;;
11255;SDS011;5685;52.384;13.420;2023-05-14T15:37:08;77.43;;;41.00;;
11255;SDS011;5685;52.384;13.420;2023-05-14T15:40:10;77.33;;;41.00;;
11255;SDS011;5685;52.384;13.420;2023-05-14T15:43:13;77.43;;;41.10;;
11255;SDS011;5685;52.384;13.420;2023-05-14T15:46:15;77.33;;;40.93;;
11255;SDS011;5685;52.384;13.420;2023-05-14T15:49:17;77.40;;;41.07;;
11255;SDS011;5685;52.384;13.420;2023-05-14T15:52:21;78.30;;;41.53;;
11255;SDS011;5685;52.384;13.420;2023-05-14T15:55:23;77.63;;;41.17;;
11255;SDS011;5685;52.384;13.420;2023-05-14T15:58:26;77.57;;;41.20;;
11255;SDS011;5685;52.384;13.420;2023-05-14T16:01:28;77.83;;;41.27;;
11255;SDS011;5685;52.384;13.420;2023-05-14T16:04:30;77.73;;;41.23;;
11255;SDS011;5685;52.384;13.420;2023-05-14T16:07:34;77.40;;;41.20;;
11255;SDS011;5685;52.384;13.420;2023-05-14T16:10:37;77.67;;;41.17;;
11255;SDS011;5685;52.384;13.420;2023-05-14T16:13:39;78.40;;;41.57;;
11255;SDS011;5685;52.384;13.420;2023-05-14T16:16:41;78.17;;;41.47;;
11255;SDS011;5685;52.384;13.420;2023-05-14T16:19:44;77.37;;;41.07;;
11255;SDS011;5685;52.384;13.420;2023-05-14T16:22:47;77.70;;;41.27;;
11255;SDS011;5685;52.384;13.420;2023-05-14T16:25:50;78.27;;;41.57;;
11255;SDS011;5685;52.384;13.420;2023-05-14T16:28:52;77.80;;;41.27;;
11255;SDS011;5685;52.384;13.420;2023-05-14T16:31:54;77.87;;;41.37;;
11255;SDS011;5685;52.384;13.420;2023-05-14T16:34:57;77.67;;;41.27;;
11255;SDS011;5685;52.384;13.420;2023-05-14T16:38:03;77.37;;;41.10;;
11255;SDS011;5685;52.384;13.420;2023-05-14T16:41:05;77.33;;;41.10;;
11255;SDS011;5685;52.384;13.420;2023-05-14T16:44:08;77.60;;;41.27;;
11255;SDS011;5685;52.384;13.420;2023-05-14T16:47:11;77.13;;;40.97;;
11255;SDS011;5685;52.384;13.420;2023-05-14T16:50:13;77.50;;;41.13;;
11255;SDS011;5685;52.384;13.420;2023-05-14T16:53:17;78.03;;;41.47;;
11255;SDS011;5685;52.384;13.420;2023-05-14T16:56:19;77.93;;;41.40;;
11255;SDS011;5685;52.384;13.420;2023-05-14T16:59:21;77.73;;;41.30;;
11255;SDS011;5685;52.384;13.420;2023-05-14T17:02:24;77.40;;;41.10;;
11255;SDS011;5685;52.384;13.420;2023-05-14T17:05:26;77.83;;;41.43;;
11255;SDS011;5685;52.384;13.420;2023-05-14T17:08:30;77.97;;;41.47;;
11255;SDS011;5685;52.384;13.420;2023-05-14T17:11:34;78.23;;;41.70;;
11255;SDS011;5685;52.384;13.420;2023-05-14T17:14:36;77.17;;;41.03;;
11255;SDS011;5685;52.384;13.420;2023-05-14T17:17:39;77.40;;;41.40;;
11255;SDS011;5685;52.384;13.420;2023-05-14T17:20:41;77.37;;;41.13;;
11255;SDS011;5685;52.384;13.420;2023-05-14T17:23:45;77.40;;;41.23;;
11255;SDS011;5685;52.384;13.420;2023-05-14T17:26:47;76.83;;;40.93;;
11255;SDS011;5685;52.384;13.420;2023-05-14T17:29:49;77.63;;;41.27;;
11255;SDS011;5685;52.384;13.420;2023-05-14T17:32:52;77.23;;;41.07;;
11255;SDS011;5685;52.384;13.420;2023-05-14T17:35:55;77.87;;;41.40;;
11255;SDS011;5685;52.384;13.420;2023-05-14T17:38:58;78.67;;;41.77;;
11255;SDS011;5685;52.384;13.420;2023-05-14T17:42:01;78.03;;;41.57;;
11255;SDS011;5685;52.384;13.420;2023-05-14T17:45:03;78.03;;;41.47;;
11255;SDS011;5685;52.384;13.420;2023-05-14T17:48:06;77.37;;;41.23;;
11255;SDS011;5685;52.384;13.420;2023-05-14T17:51:08;77.63;;;41.33;;